Time;durP1;ratioP1;P1;durP2;ratioP2;P2;SDS_P1;SDS_P2;PMS_P1;PMS_P2;Temp;Humidity;BMP_temperature;BMP_pressure;BME280_temperature;BME280_humidity;BME280_pressure;Samples;Min_cycle;Max_cycle;Signal;HPM_P1;HPM_P2
2023/06/28 00:00:10;;;;;;;3.70;1.50;;;;;;;16.62;100.00;101032.19;694842;28;1495;-56
2023/06/28 00:00:36;;;;;;;3.90;1.70;;;;;;;16.61;100.00;101041.00;695333;28;945;-56
2023/06/28 00:01:00;;;;;;;3.65;1.50;;;;;;;16.60;100.00;101034.00;695262;28;4567;-56
2023/06/28 00:01:21;;;;;;;3.85;1.58;;;;;;;16.60;100.00;101039.28;694306;28;930;-56
2023/06/28 00:01:41;;;;;;;3.60;1.50;;;;;;;16.57;100.00;101034.06;695541;28;1208;-56
2023/06/28 00:02:01;;;;;;;3.27;1.50;;;;;;;16.56;100.00;101032.34;695767;28;1253;-56
2023/06/28 00:02:22;;;;;;;3.40;1.60;;;;;;;16.57;100.00;101036.69;694638;28;1634;-56
2023/06/28 00:02:42;;;;;;;3.23;1.63;;;;;;;16.58;100.00;101040.22;695520;28;940;-56
2023/06/28 00:03:10;;;;;;;7.97;1.83;;;;;;;16.58;100.00;101038.44;696159;28;817;-56
2023/06/28 00:03:31;;;;;;;3.50;1.42;;;;;;;16.58;100.00;101041.06;692158;28;1580;-56
2023/06/28 00:03:51;;;;;;;4.57;1.60;;;;;;;16.59;100.00;101040.19;692156;28;4219;-56
2023/06/28 00:04:12;;;;;;;6.30;1.80;;;;;;;16.57;100.00;101036.69;691462;28;1537;-56
2023/06/28 00:04:32;;;;;;;5.80;1.77;;;;;;;16.57;100.00;101036.69;693095;28;1174;-56
2023/06/28 00:04:53;;;;;;;3.60;1.50;;;;;;;16.56;100.00;101036.72;693565;28;904;-57
2023/06/28 00:05:13;;;;;;;4.20;1.53;;;;;;;16.58;100.00;101045.50;692400;28;1547;-57
2023/06/28 00:05:34;;;;;;;4.78;1.70;;;;;;;16.58;100.00;101035.78;695868;28;928;-56
2023/06/28 00:05:54;;;;;;;4.30;1.50;;;;;;;16.58;100.00;101035.78;696010;28;801;-55
2023/06/28 00:06:15;;;;;;;4.95;1.70;;;;;;;16.58;100.00;101030.53;695293;28;1490;-55
2023/06/28 00:06:35;;;;;;;4.50;1.67;;;;;;;16.59;100.00;101040.19;695841;28;865;-57
2023/06/28 00:06:55;;;;;;;4.95;1.70;;;;;;;16.59;100.00;101031.41;695277;28;4376;-56
2023/06/28 00:07:16;;;;;;;3.57;1.43;;;;;;;16.59;100.00;101029.63;695314;28;939;-57
2023/06/28 00:07:36;;;;;;;4.43;1.58;;;;;;;16.58;100.00;101035.78;696198;28;919;-57
2023/06/28 00:07:57;;;;;;;3.93;1.50;;;;;;;16.58;100.00;101032.31;695974;28;1003;-56
2023/06/28 00:08:17;;;;;;;3.27;1.60;;;;;;;16.57;100.00;101028.78;695352;28;1550;-56
2023/06/28 00:08:40;;;;;;;3.75;1.73;;;;;;;16.57;100.00;101030.56;696228;28;920;-56
2023/06/28 00:09:01;;;;;;;4.00;1.80;;;;;;;16.55;100.00;101033.25;696114;28;761;-56
2023/06/28 00:09:21;;;;;;;4.40;1.60;;;;;;;16.54;100.00;101039.41;692229;28;1605;-56
2023/06/28 00:09:41;;;;;;;3.77;1.50;;;;;;;16.57;100.00;101031.41;692389;28;4535;-57
2023/06/28 00:10:03;;;;;;;3.73;1.60;;;;;;;16.59;100.00;101031.41;693143;28;935;-56
2023/06/28 00:10:23;;;;;;;4.18;1.73;;;;;;;16.58;100.00;101034.94;692121;28;1535;-56
2023/06/28 00:10:44;;;;;;;3.80;1.50;;;;;;;16.57;100.00;101034.06;693412;28;813;-55
2023/06/28 00:11:04;;;;;;;4.28;1.58;;;;;;;16.56;100.00;101034.97;693470;28;829;-56
2023/06/28 00:11:25;;;;;;;5.20;2.10;;;;;;;16.57;100.00;101031.41;695353;28;1567;-56
2023/06/28 00:11:46;;;;;;;3.05;1.42;;;;;;;16.60;100.00;101028.72;696027;28;904;-55
2023/06/28 00:12:06;;;;;;;4.78;1.60;;;;;;;16.75;100.00;101037.16;695669;28;1039;-55
2023/06/28 00:12:29;;;;;;;5.35;1.60;;;;;;;16.75;100.00;101034.53;691626;28;1328;-57
2023/06/28 00:12:49;;;;;;;3.97;1.50;;;;;;;16.72;100.00;101030.19;691746;28;4598;-56
2023/06/28 00:13:09;;;;;;;5.93;1.90;;;;;;;16.70;100.00;101037.28;690550;28;1484;-56
2023/06/28 00:13:30;;;;;;;4.85;1.63;;;;;;;16.67;100.00;101035.59;692131;28;947;-55
2023/06/28 00:13:50;;;;;;;5.33;1.60;;;;;;;16.66;100.00;101036.47;693107;28;1182;-57
2023/06/28 00:14:11;;;;;;;4.70;1.53;;;;;;;16.67;100.00;101034.72;690566;28;1601;-55
2023/06/28 00:14:31;;;;;;;2.77;1.50;;;;;;;16.68;100.00;101037.31;696350;28;1073;-56
2023/06/28 00:14:51;;;;;;;3.30;1.30;;;;;;;16.68;100.00;101034.69;696438;28;884;-57
2023/06/28 00:15:12;;;;;;;3.80;1.40;;;;;;;16.72;100.00;101037.25;694832;28;1592;-57
2023/06/28 00:15:32;;;;;;;3.83;1.50;;;;;;;16.69;100.00;101036.41;696391;28;999;-56
2023/06/28 00:15:53;;;;;;;4.25;1.65;;;;;;;16.66;100.00;101036.47;695315;28;4320;-57
2023/06/28 00:16:14;;;;;;;4.30;1.50;;;;;;;16.66;100.00;101033.84;693858;28;3093;-57
2023/06/28 00:16:35;;;;;;;3.85;1.60;;;;;;;16.65;100.00;101032.09;696260;28;841;-56
2023/06/28 00:16:56;;;;;;;3.63;1.50;;;;;;;16.62;100.00;101040.09;696416;28;1003;-55
2023/06/28 00:17:16;;;;;;;4.43;1.80;;;;;;;16.60;100.00;101034.00;694652;28;1529;-55
2023/06/28 00:17:36;;;;;;;4.70;1.70;;;;;;;16.60;100.00;101041.03;696376;28;765;-56
2023/06/28 00:17:57;;;;;;;3.60;1.50;;;;;;;16.58;100.00;101033.16;694975;28;878;-57
2023/06/28 00:18:17;;;;;;;4.57;1.50;;;;;;;16.63;100.00;101036.56;694005;28;1740;-56
2023/06/28 00:18:37;;;;;;;3.85;1.60;;;;;;;16.62;100.00;101036.59;696040;28;1031;-57
2023/06/28 00:19:00;;;;;;;3.10;1.47;;;;;;;16.58;100.00;101032.31;695784;28;4337;-56
2023/06/28 00:19:26;;;;;;;3.20;1.35;;;;;;;16.57;100.00;101031.41;694430;28;1688;-57
2023/06/28 00:19:49;;;;;;;2.85;1.40;;;;;;;16.59;100.00;101032.25;696153;28;1965;-57
2023/06/28 00:20:10;;;;;;;4.10;1.60;;;;;;;16.59;100.00;101036.69;693676;28;1556;-57
2023/06/28 00:20:31;;;;;;;4.32;1.45;;;;;;;16.56;100.00;101031.47;695963;28;867;-57
2023/06/28 00:20:51;;;;;;;3.60;1.50;;;;;;;16.55;100.00;101035.03;696663;28;1002;-57
2023/06/28 00:21:13;;;;;;;3.37;1.40;;;;;;;16.54;100.00;101033.28;695102;28;903;-56
2023/06/28 00:21:33;;;;;;;4.38;1.52;;;;;;;16.52;100.00;101035.97;695959;28;847;-56
2023/06/28 00:21:54;;;;;;;4.70;1.50;;;;;;;16.50;100.00;101045.66;693556;28;4360;-55
2023/06/28 00:22:15;;;;;;;4.85;1.52;;;;;;;16.51;100.00;101042.13;694756;28;1458;-55
2023/06/28 00:22:35;;;;;;;4.88;1.52;;;;;;;16.59;100.00;101036.69;695985;28;848;-56
2023/06/28 00:22:56;;;;;;;4.40;1.50;;;;;;;16.58;100.00;101035.78;696586;28;891;-57
2023/06/28 00:23:16;;;;;;;4.00;1.50;;;;;;;16.56;100.00;101037.63;695137;28;1735;-56
2023/06/28 00:23:36;;;;;;;3.57;1.60;;;;;;;16.58;100.00;101040.22;695880;28;1022;-56
2023/06/28 00:23:59;;;;;;;3.57;1.50;;;;;;;16.60;100.00;101038.41;696460;28;1344;-56
2023/06/28 00:24:20;;;;;;;4.43;1.40;;;;;;;16.62;100.00;101034.81;694467;28;1490;-56
2023/06/28 00:24:41;;;;;;;3.50;1.40;;;;;;;16.61;100.00;101035.72;695528;28;4556;-55
2023/06/28 00:25:05;;;;;;;3.90;1.75;;;;;;;16.59;100.00;101039.31;696247;28;967;-56
2023/06/28 00:25:25;;;;;;;5.32;1.80;;;;;;;16.59;100.00;101040.19;694939;28;1635;-58
2023/06/28 00:25:46;;;;;;;5.13;1.60;;;;;;;16.57;100.00;101034.06;692687;28;1287;-56
2023/06/28 00:26:07;;;;;;;4.30;1.45;;;;;;;16.57;100.00;101046.41;693581;28;931;-56
2023/06/28 00:26:27;;;;;;;4.10;1.50;;;;;;;16.56;100.00;101034.09;692788;28;1042;-56
2023/06/28 00:26:48;;;;;;;3.37;1.40;;;;;;;16.62;100.00;101037.47;690291;28;1549;-56
2023/06/28 00:27:11;;;;;;;3.83;1.50;;;;;;;16.62;100.00;101039.25;689373;28;1611;-54
2023/06/28 00:27:32;;;;;;;3.08;1.50;;;;;;;16.60;100.00;101038.41;688952;28;1235;-56
2023/06/28 00:27:53;;;;;;;3.47;1.40;;;;;;;16.58;100.00;101046.34;687430;28;4585;-57
2023/06/28 00:28:14;;;;;;;3.63;1.60;;;;;;;16.55;100.00;101041.16;685301;28;1518;-57
2023/06/28 00:28:34;;;;;;;3.28;1.60;;;;;;;16.58;100.00;101051.63;686853;28;944;-56
2023/06/28 00:28:55;;;;;;;3.50;1.45;;;;;;;16.61;100.00;101040.13;689652;28;1004;-57
2023/06/28 00:29:15;;;;;;;3.77;1.40;;;;;;;16.60;100.00;101044.56;688343;28;1621;-57
2023/06/28 00:29:35;;;;;;;4.10;1.60;;;;;;;16.59;100.00;101042.81;691768;28;888;-57
2023/06/28 00:29:56;;;;;;;3.27;1.50;;;;;;;16.56;100.00;101047.28;693458;28;841;-56
2023/06/28 00:30:17;;;;;;;4.32;1.60;;;;;;;16.54;100.00;101044.69;688635;28;1800;-56
2023/06/28 00:30:37;;;;;;;3.10;1.40;;;;;;;16.57;100.00;101039.34;687957;28;1324;-57
2023/06/28 00:30:58;;;;;;;3.38;1.50;;;;;;;16.63;100.00;101039.19;688678;28;4499;-56
2023/06/28 00:31:18;;;;;;;2.87;1.40;;;;;;;16.60;100.00;101044.56;687602;28;1521;-57
2023/06/28 00:31:39;;;;;;;2.70;1.40;;;;;;;16.57;100.00;101039.34;683715;28;1471;-55
2023/06/28 00:32:00;;;;;;;2.87;1.40;;;;;;;16.60;100.00;101041.03;686965;28;807;-56
2023/06/28 00:32:20;;;;;;;3.63;1.50;;;;;;;16.58;100.00;101046.34;688962;28;1587;-55
2023/06/28 00:32:41;;;;;;;4.30;1.50;;;;;;;16.58;100.00;101046.34;692103;28;1546;-57
2023/06/28 00:33:01;;;;;;;3.13;1.30;;;;;;;16.56;100.00;101047.28;690259;28;931;-55
2023/06/28 00:33:21;;;;;;;4.78;1.40;;;;;;;16.54;100.00;101051.75;689117;28;1646;-56
2023/06/28 00:33:42;;;;;;;4.37;1.47;;;;;;;16.53;100.00;101050.88;692843;28;4441;-56
2023/06/28 00:34:02;;;;;;;4.63;1.58;;;;;;;16.53;100.00;101045.59;692524;28;844;-56
2023/06/28 00:34:24;;;;;;;2.78;1.30;;;;;;;16.50;100.00;101048.31;690611;28;1537;-56
2023/06/28 00:34:47;;;;;;;2.92;1.30;;;;;;;16.48;100.00;101047.50;690482;28;860;-57
2023/06/28 00:35:08;;;;;;;2.83;1.40;;;;;;;16.47;100.00;101048.38;691742;28;1574;-56
2023/06/28 00:35:28;;;;;;;4.27;1.40;;;;;;;16.44;100.00;101044.03;690523;28;1264;-57
2023/06/28 00:35:48;;;;;;;4.53;1.38;;;;;;;16.45;100.00;101051.06;690326;28;872;-56
2023/06/28 00:36:09;;;;;;;3.73;1.40;;;;;;;16.45;100.00;101044.94;689093;28;1491;-57
2023/06/28 00:36:30;;;;;;;4.45;1.52;;;;;;;16.43;100.00;101047.56;687026;28;1514;-55
2023/06/28 00:36:51;;;;;;;4.13;1.40;;;;;;;16.42;100.00;101042.34;688833;28;4374;-57
2023/06/28 00:37:11;;;;;;;3.70;1.70;;;;;;;16.42;100.00;101055.53;687230;28;1508;-55
2023/06/28 00:37:32;;;;;;;4.23;1.63;;;;;;;16.41;100.00;101052.03;690801;28;1230;-55
2023/06/28 00:37:52;;;;;;;3.47;1.50;;;;;;;16.41;100.00;101048.53;688538;28;935;-56
2023/06/28 00:38:13;;;;;;;3.20;1.40;;;;;;;16.39;100.00;101043.28;687540;28;1436;-56
2023/06/28 00:38:34;;;;;;;3.90;1.85;;;;;;;16.41;100.00;101045.91;693290;28;829;-56
2023/06/28 00:38:57;;;;;;;3.38;1.50;;;;;;;16.39;100.00;101047.69;690050;28;1256;-56
2023/06/28 00:39:20;;;;;;;3.72;1.40;;;;;;;16.42;100.00;101042.34;687741;28;1940;-55
2023/06/28 00:39:40;;;;;;;3.10;1.33;;;;;;;16.43;100.00;101049.34;689052;28;4856;-56
2023/06/28 00:40:04;;;;;;;2.78;1.30;;;;;;;16.45;100.00;101050.22;689954;28;1201;-56
2023/06/28 00:40:25;;;;;;;2.85;1.42;;;;;;;16.43;100.00;101046.72;684635;28;1461;-57
2023/06/28 00:40:45;;;;;;;3.37;1.47;;;;;;;16.41;100.00;101054.66;687069;28;1191;-57
2023/06/28 00:41:06;;;;;;;3.95;1.50;;;;;;;16.42;100.00;101052.88;687086;28;828;-57
2023/06/28 00:41:27;;;;;;;3.33;1.60;;;;;;;16.41;100.00;101056.47;683821;28;1643;-57
2023/06/28 00:41:48;;;;;;;3.72;1.70;;;;;;;16.42;100.00;101048.50;683021;28;1451;-57
2023/06/28 00:42:09;;;;;;;3.60;1.60;;;;;;;16.50;100.00;101053.59;684680;28;1541;-56
2023/06/28 00:42:29;;;;;;;4.03;1.60;;;;;;;16.47;100.00;101049.25;687184;28;1043;-57
2023/06/28 00:42:49;;;;;;;3.55;1.40;;;;;;;16.45;100.00;101055.47;687269;28;4409;-57
2023/06/28 00:43:12;;;;;;;3.20;1.30;;;;;;;16.44;100.00;101059.00;686136;28;1474;-56
2023/06/28 00:43:32;;;;;;;3.75;1.60;;;;;;;16.48;100.00;101061.53;685100;28;1411;-56
2023/06/28 00:43:53;;;;;;;3.43;1.40;;;;;;;16.49;100.00;101051.84;687998;28;863;-56
2023/06/28 00:44:13;;;;;;;3.13;1.30;;;;;;;16.47;100.00;101056.28;683971;28;1553;-58
2023/06/28 00:44:34;;;;;;;2.83;1.33;;;;;;;16.43;100.00;101057.28;684604;28;876;-56
2023/06/28 00:44:55;;;;;;;2.63;1.30;;;;;;;16.40;100.00;101058.22;683101;28;1189;-57
2023/06/28 00:45:15;;;;;;;2.90;1.33;;;;;;;16.39;100.00;101056.47;684662;28;1525;-57
2023/06/28 00:45:35;;;;;;;3.88;1.48;;;;;;;16.43;100.00;101049.34;687674;28;1359;-57
2023/06/28 00:45:56;;;;;;;3.13;1.23;;;;;;;16.42;100.00;101055.53;687296;28;4460;-57
2023/06/28 00:46:16;;;;;;;2.83;1.20;;;;;;;16.41;100.00;101061.72;689095;28;1504;-56
2023/06/28 00:46:37;;;;;;;2.67;1.27;;;;;;;16.40;100.00;101057.34;690495;28;767;-56
2023/06/28 00:46:58;;;;;;;3.60;1.50;;;;;;;16.38;100.00;101053.88;693199;28;972;-55
2023/06/28 00:47:20;;;;;;;3.53;1.35;;;;;;;16.36;100.00;101053.03;689309;28;1575;-56
2023/06/28 00:47:42;;;;;;;3.10;1.33;;;;;;;16.38;100.00;101048.59;687469;28;1447;-57
2023/06/28 00:48:03;;;;;;;2.95;1.20;;;;;;;16.41;100.00;101048.53;688003;28;1401;-56
2023/06/28 00:48:24;;;;;;;3.17;1.30;;;;;;;16.40;100.00;101052.06;684839;28;1581;-57
2023/06/28 00:48:45;;;;;;;2.95;1.23;;;;;;;16.41;100.00;101054.66;685990;28;4334;-56
2023/06/28 00:49:05;;;;;;;2.87;1.40;;;;;;;16.40;100.00;101058.22;688334;28;1063;-57
2023/06/28 00:49:29;;;;;;;3.13;1.30;;;;;;;16.38;100.00;101060.03;687235;28;1575;-56
2023/06/28 00:49:53;;;;;;;4.15;1.35;;;;;;;16.37;100.00;101057.44;685106;28;1264;-56
2023/06/28 00:50:14;;;;;;;3.08;1.30;;;;;;;16.41;100.00;101059.09;687366;28;1548;-56
2023/06/28 00:50:36;;;;;;;2.45;1.30;;;;;;;16.40;100.00;101052.06;687592;28;1886;-57
2023/06/28 00:50:57;;;;;;;3.72;1.30;;;;;;;16.39;100.00;101052.97;687551;28;1045;-56
2023/06/28 00:51:18;;;;;;;4.13;1.52;;;;;;;16.38;100.00;101053.88;683862;28;1667;-57
2023/06/28 00:51:39;;;;;;;3.30;1.30;;;;;;;16.40;100.00;101052.06;684141;28;1225;-56
2023/06/28 00:52:00;;;;;;;3.17;1.38;;;;;;;16.35;100.00;101060.06;686578;28;4373;-57
2023/06/28 00:52:21;;;;;;;3.20;1.33;;;;;;;16.33;100.00;101052.19;687309;28;1529;-57
2023/06/28 00:52:42;;;;;;;2.47;1.20;;;;;;;16.32;100.00;101061.03;690019;28;1381;-56
2023/06/28 00:53:03;;;;;;;3.10;1.40;;;;;;;16.29;100.00;101050.53;691112;28;928;-57
2023/06/28 00:53:23;;;;;;;3.97;1.50;;;;;;;16.24;100.00;101055.06;691922;28;1497;-57
2023/06/28 00:53:44;;;;;;;3.45;1.48;;;;;;;16.23;100.00;101055.09;690314;28;967;-57
2023/06/28 00:54:06;;;;;;;2.67;1.20;;;;;;;16.23;100.00;101061.22;690378;28;856;-55
2023/06/28 00:54:27;;;;;;;3.03;1.40;;;;;;;16.19;100.00;101049.00;692098;28;1542;-57
2023/06/28 00:54:47;;;;;;;3.63;1.50;;;;;;;16.19;100.00;101056.06;690053;28;4439;-57
2023/06/28 00:55:08;;;;;;;4.03;1.60;;;;;;;16.25;100.00;101055.91;690114;28;963;-57
2023/06/28 00:55:28;;;;;;;3.47;1.30;;;;;;;16.25;100.00;101056.78;687460;28;1209;-57
2023/06/28 00:55:49;;;;;;;4.43;1.30;;;;;;;16.21;100.00;101055.09;687302;28;997;-56
2023/06/28 00:56:10;;;;;;;3.95;1.45;;;;;;;16.21;100.00;101056.88;686183;28;1587;-56
2023/06/28 00:56:30;;;;;;;4.20;1.77;;;;;;;16.21;100.00;101060.38;687851;28;892;-58
2023/06/28 00:56:51;;;;;;;3.20;1.55;;;;;;;16.17;100.00;101051.69;690610;28;1165;-55
2023/06/28 00:57:12;;;;;;;3.70;1.50;;;;;;;16.18;100.00;101055.19;688947;28;1576;-57
2023/06/28 00:57:33;;;;;;;3.50;1.42;;;;;;;16.25;100.00;101056.78;690381;28;1071;-57
2023/06/28 00:57:53;;;;;;;3.23;1.37;;;;;;;16.22;100.00;101053.34;688834;28;4332;-56
2023/06/28 00:58:14;;;;;;;3.72;1.50;;;;;;;16.21;100.00;101060.38;691249;28;1440;-57
2023/06/28 00:58:35;;;;;;;3.72;1.40;;;;;;;16.18;100.00;101055.19;692193;28;852;-56
2023/06/28 00:58:55;;;;;;;4.30;1.30;;;;;;;16.15;100.00;101053.47;693380;28;1188;-57
2023/06/28 00:59:15;;;;;;;3.72;1.30;;;;;;;16.16;100.00;101059.63;688816;28;1593;-57
2023/06/28 00:59:36;;;;;;;5.23;1.30;;;;;;;16.14;100.00;101056.16;690507;28;1118;-57
2023/06/28 00:59:58;;;;;;;4.07;1.27;;;;;;;16.11;100.00;101051.81;690366;28;1988;-57
2023/06/28 01:00:19;;;;;;;2.97;1.42;;;;;;;16.10;100.00;101054.47;689335;28;1605;-57
2023/06/28 01:00:39;;;;;;;3.63;1.38;;;;;;;16.10;100.00;101047.44;690661;28;1018;-57
2023/06/28 01:01:00;;;;;;;3.67;1.47;;;;;;;16.07;100.00;101055.41;692935;28;4480;-57
2023/06/28 01:01:21;;;;;;;3.75;1.30;;;;;;;16.04;100.00;101057.25;689199;28;1722;-56
2023/06/28 01:01:42;;;;;;;4.03;1.40;;;;;;;15.99;100.00;101047.69;687903;28;853;-56
2023/06/28 01:02:03;;;;;;;4.93;1.50;;;;;;;15.99;100.00;101057.34;686807;28;1282;-57
2023/06/28 01:02:25;;;;;;;3.00;1.30;;;;;;;15.97;100.00;101052.09;683219;28;1634;-57
2023/06/28 01:02:45;;;;;;;3.72;1.50;;;;;;;15.95;100.00;101056.53;684882;28;1415;-57
2023/06/28 01:03:06;;;;;;;3.75;1.30;;;;;;;15.94;100.00;101054.81;685290;28;997;-56
2023/06/28 01:03:26;;;;;;;4.17;1.53;;;;;;;15.97;100.00;101056.50;686601;28;1701;-57
2023/06/28 01:03:53;;;;;;;3.67;1.53;;;;;;;15.94;100.00;101054.81;686784;28;4411;-56
2023/06/28 01:04:13;;;;;;;3.10;1.40;;;;;;;15.95;100.00;101061.81;686824;28;1474;-57
2023/06/28 01:04:36;;;;;;;3.40;1.30;;;;;;;15.93;100.00;101055.69;688445;28;1171;-57
2023/06/28 01:04:58;;;;;;;4.10;1.42;;;;;;;15.91;100.00;101054.88;692009;28;1022;-57
2023/06/28 01:05:19;;;;;;;4.07;1.50;;;;;;;15.91;100.00;101053.97;688914;28;1432;-56
2023/06/28 01:05:46;;;;;;;3.78;1.40;;;;;;;15.88;100.00;101054.94;690185;28;873;-57
2023/06/28 01:06:06;;;;;;;3.70;1.23;;;;;;;15.88;100.00;101060.22;690021;28;1195;-55
2023/06/28 01:06:35;;;;;;;3.03;1.20;;;;;;;15.86;100.00;101062.00;689323;28;1475;-56
2023/06/28 01:06:59;;;;;;;4.55;1.30;;;;;;;15.88;100.00;101060.22;690105;28;4344;-57
2023/06/28 01:07:20;;;;;;;4.90;1.50;;;;;;;15.87;100.00;101058.47;689217;28;1665;-57
2023/06/28 01:07:43;;;;;;;3.70;1.27;;;;;;;15.88;100.00;101059.31;690036;28;829;-56
2023/06/28 01:08:05;;;;;;;2.90;1.40;;;;;;;15.88;100.00;101052.31;690025;28;1026;-56
2023/06/28 01:08:27;;;;;;;2.75;1.30;;;;;;;15.99;100.00;101060.84;686917;28;1122;-57
2023/06/28 01:08:48;;;;;;;2.70;1.25;;;;;;;16.00;100.00;101059.97;687461;28;1011;-57
2023/06/28 01:09:11;;;;;;;3.20;1.30;;;;;;;15.99;100.00;101063.50;688667;28;1015;-56
2023/06/28 01:09:33;;;;;;;3.88;1.48;;;;;;;15.94;100.00;101056.59;688986;28;2164;-57
2023/06/28 01:09:56;;;;;;;5.10;1.52;;;;;;;15.91;100.00;101054.88;687130;28;4525;-56
2023/06/28 01:10:17;;;;;;;4.55;1.50;;;;;;;15.91;100.00;101056.63;689085;28;1577;-57
2023/06/28 01:10:38;;;;;;;3.30;1.40;;;;;;;15.87;100.00;101053.19;692766;28;975;-57
2023/06/28 01:11:01;;;;;;;6.00;2.50;;;;;;;15.85;100.00;101059.41;689452;28;963;-56
2023/06/28 01:11:21;;;;;;;7.10;2.25;;;;;;;15.80;100.00;101056.88;689800;28;1693;-56
2023/06/28 01:11:42;;;;;;;3.07;1.47;;;;;;;15.80;100.00;101059.50;691327;28;938;-54
2023/06/28 01:12:03;;;;;;;3.92;1.70;;;;;;;15.78;100.00;101053.34;689724;28;1508;-56
2023/06/28 01:12:25;;;;;;;3.58;1.27;;;;;;;15.77;100.00;101057.75;687449;28;1333;-57
2023/06/28 01:12:47;;;;;;;3.75;1.50;;;;;;;15.75;100.00;101063.97;684759;28;5353;-57
2023/06/28 01:13:08;;;;;;;4.50;1.50;;;;;;;15.72;100.00;101058.75;684741;28;2008;-57
2023/06/28 01:13:29;;;;;;;4.78;1.40;;;;;;;15.71;100.00;101055.22;681887;28;1489;-54
2023/06/28 01:13:50;;;;;;;4.43;1.42;;;;;;;15.71;100.00;101063.13;684274;28;1557;-55
2023/06/28 01:14:11;;;;;;;3.63;1.30;;;;;;;15.70;100.00;101066.69;684107;28;1587;-56
2023/06/28 01:14:32;;;;;;;2.95;1.30;;;;;;;15.71;100.00;101057.00;685568;28;1555;-56
2023/06/28 01:14:52;;;;;;;3.30;1.48;;;;;;;15.69;100.00;101058.78;688218;28;1027;-55
2023/06/28 01:15:13;;;;;;;3.58;1.30;;;;;;;15.66;100.00;101059.75;686904;28;1461;-56
2023/06/28 01:15:35;;;;;;;4.35;1.40;;;;;;;15.66;100.00;101063.25;690213;28;854;-57
2023/06/28 01:15:56;;;;;;;4.40;1.30;;;;;;;15.65;100.00;101058.84;689224;28;4544;-55
2023/06/28 01:16:17;;;;;;;3.63;1.40;;;;;;;15.63;100.00;101065.94;688726;28;1923;-56
2023/06/28 01:16:37;;;;;;;4.03;1.30;;;;;;;15.61;100.00;101065.09;690358;28;982;-56
2023/06/28 01:16:58;;;;;;;3.97;1.33;;;;;;;15.62;100.00;101066.84;690993;28;852;-55
2023/06/28 01:17:19;;;;;;;3.65;1.48;;;;;;;15.66;100.00;101070.28;691773;28;974;-56
2023/06/28 01:17:40;;;;;;;3.65;1.45;;;;;;;15.66;100.00;101068.50;693216;28;1014;-56
2023/06/28 01:18:01;;;;;;;2.93;1.33;;;;;;;15.70;100.00;101066.69;693185;28;1218;-56
2023/06/28 01:18:23;;;;;;;2.50;1.23;;;;;;;15.73;100.00;101065.75;692193;28;1565;-56
2023/06/28 01:18:44;;;;;;;3.17;1.40;;;;;;;15.68;100.00;101059.72;694843;28;4489;-56
2023/06/28 01:19:05;;;;;;;4.57;1.33;;;;;;;15.65;100.00;101058.84;696266;28;951;-56
2023/06/28 01:19:32;;;;;;;4.57;1.40;;;;;;;15.60;100.00;101060.75;691434;28;1547;-55
2023/06/28 01:19:54;;;;;;;4.05;1.40;;;;;;;15.56;100.00;101053.78;691888;28;1918;-56
2023/06/28 01:20:15;;;;;;;3.08;1.40;;;;;;;15.55;100.00;101059.94;692224;28;1465;-55
2023/06/28 01:20:36;;;;;;;2.78;1.35;;;;;;;15.52;100.00;101057.38;691479;28;965;-56
2023/06/28 01:20:57;;;;;;;2.72;1.40;;;;;;;15.48;100.00;101059.19;692048;28;888;-55
2023/06/28 01:21:20;;;;;;;3.80;1.50;;;;;;;15.47;100.00;101064.50;693019;28;976;-56
2023/06/28 01:21:44;;;;;;;3.63;1.45;;;;;;;15.45;100.00;101061.00;692580;28;4542;-56
2023/06/28 01:22:06;;;;;;;3.03;1.40;;;;;;;15.44;100.00;101060.16;692149;28;964;-56
2023/06/28 01:22:26;;;;;;;3.40;1.40;;;;;;;15.44;100.00;101062.78;691614;28;1489;-56
2023/06/28 01:22:53;;;;;;;2.67;1.27;;;;;;;15.45;100.00;101061.88;690350;28;829;-56
2023/06/28 01:23:14;;;;;;;3.88;1.40;;;;;;;15.45;100.00;101063.63;687783;28;987;-57
2023/06/28 01:23:35;;;;;;;3.72;1.60;;;;;;;15.44;100.00;101059.28;689055;28;1658;-56
2023/06/28 01:23:56;;;;;;;3.42;1.23;;;;;;;15.42;100.00;101055.78;690255;28;1062;-56
2023/06/28 01:24:21;;;;;;;2.57;1.20;;;;;;;15.42;100.00;101063.69;685764;28;1783;-56
2023/06/28 01:24:42;;;;;;;2.78;1.30;;;;;;;15.41;100.00;101065.47;687119;28;4451;-56
2023/06/28 01:25:03;;;;;;;3.35;1.38;;;;;;;15.40;100.00;101058.47;690639;28;837;-56
2023/06/28 01:25:23;;;;;;;3.78;1.50;;;;;;;15.40;100.00;101062.88;687616;28;1289;-56
2023/06/28 01:25:44;;;;;;;4.10;1.40;;;;;;;15.40;100.00;101068.16;689621;28;825;-56
2023/06/28 01:26:05;;;;;;;3.47;1.40;;;;;;;15.37;100.00;101073.44;692940;28;1095;-56
2023/06/28 01:26:27;;;;;;;2.95;1.50;;;;;;;15.36;100.00;101063.81;689012;28;1603;-56
2023/06/28 01:26:51;;;;;;;3.75;1.50;;;;;;;15.35;100.00;101065.56;689422;28;891;-56
2023/06/28 01:27:13;;;;;;;4.35;1.40;;;;;;;15.34;100.00;101074.41;686345;28;1602;-55
2023/06/28 01:27:33;;;;;;;3.75;1.30;;;;;;;15.33;100.00;101068.25;687768;28;845;-56
2023/06/28 01:27:55;;;;;;;3.65;1.30;;;;;;;15.31;100.00;101064.78;688870;28;4372;-56
2023/06/28 01:28:15;;;;;;;5.60;1.65;;;;;;;15.28;100.00;101067.44;690287;28;1543;-55
2023/06/28 01:28:37;;;;;;;3.58;1.50;;;;;;;15.28;100.00;101063.94;692975;28;940;-56
2023/06/28 01:28:57;;;;;;;4.28;1.58;;;;;;;15.27;100.00;101063.09;688941;28;1025;-56
2023/06/28 01:29:21;;;;;;;3.95;1.50;;;;;;;15.26;100.00;101066.63;686697;28;1686;-55
2023/06/28 01:29:43;;;;;;;4.18;1.40;;;;;;;15.25;100.00;101062.25;686865;28;1133;-56
2023/06/28 01:30:05;;;;;;;3.08;1.35;;;;;;;15.25;100.00;101069.28;687843;28;806;-57
2023/06/28 01:30:26;;;;;;;3.17;1.42;;;;;;;15.23;100.00;101069.31;684054;28;1545;-55
2023/06/28 01:30:48;;;;;;;4.77;1.73;;;;;;;15.22;100.00;101070.19;684662;28;4559;-56
2023/06/28 01:31:11;;;;;;;3.58;1.60;;;;;;;15.19;100.00;101067.63;689309;28;972;-54
2023/06/28 01:31:32;;;;;;;3.53;1.40;;;;;;;15.16;100.00;101070.31;692734;28;839;-55
2023/06/28 01:31:56;;;;;;;3.95;1.60;;;;;;;15.13;100.00;101063.34;692554;28;844;-54
2023/06/28 01:32:17;;;;;;;3.10;1.25;;;;;;;15.11;100.00;101066.91;691449;28;1632;-55
2023/06/28 01:32:37;;;;;;;3.97;1.65;;;;;;;15.12;100.00;101066.00;695809;28;967;-56
2023/06/28 01:32:58;;;;;;;3.53;1.60;;;;;;;15.10;100.00;101067.78;694503;28;1570;-55
2023/06/28 01:33:18;;;;;;;2.88;1.50;;;;;;;15.07;100.00;101066.06;691985;28;982;-56
2023/06/28 01:33:42;;;;;;;3.30;1.33;;;;;;;15.08;100.00;101070.44;691459;28;868;-55
2023/06/28 01:34:02;;;;;;;2.97;1.50;;;;;;;15.12;100.00;101066.00;691395;28;4832;-55
2023/06/28 01:34:24;;;;;;;3.43;1.50;;;;;;;15.15;100.00;101068.56;691056;28;1820;-56
2023/06/28 01:34:46;;;;;;;3.97;1.55;;;;;;;15.13;100.00;101063.34;692107;28;865;-55
2023/06/28 01:35:07;;;;;;;4.00;1.50;;;;;;;15.13;100.00;101065.09;691117;28;907;-56
2023/06/28 01:35:29;;;;;;;4.10;1.58;;;;;;;15.12;100.00;101066.00;694090;28;1600;-55
2023/06/28 01:35:50;;;;;;;3.40;1.60;;;;;;;15.10;100.00;101065.16;693700;28;2703;-56
2023/06/28 01:36:11;;;;;;;4.47;1.70;;;;;;;15.09;100.00;101073.94;693260;28;1648;-56
2023/06/28 01:36:32;;;;;;;5.15;1.52;;;;;;;15.05;100.00;101073.13;693883;28;963;-56
2023/06/28 01:36:54;;;;;;;4.45;1.58;;;;;;;15.03;100.00;101072.28;691950;28;4505;-55
2023/06/28 01:37:15;;;;;;;3.35;1.60;;;;;;;15.02;100.00;101064.41;694299;28;1514;-56
2023/06/28 01:37:39;;;;;;;3.88;1.50;;;;;;;15.00;100.00;101067.06;693010;28;1474;-56
2023/06/28 01:38:00;;;;;;;5.35;1.63;;;;;;;14.99;100.00;101067.94;693216;28;1251;-55
2023/06/28 01:38:21;;;;;;;5.00;1.77;;;;;;;14.98;100.00;101064.47;691661;28;1623;-55
2023/06/28 01:38:43;;;;;;;4.53;1.48;;;;;;;14.98;100.00;101071.47;692532;28;5733;-56
2023/06/28 01:39:05;;;;;;;4.47;1.60;;;;;;;14.97;100.00;101067.13;690385;28;1415;-56
2023/06/28 01:39:28;;;;;;;4.97;1.50;;;;;;;14.93;100.00;101063.66;685390;28;1698;-58
2023/06/28 01:39:49;;;;;;;3.20;1.30;;;;;;;14.94;100.00;101062.78;688292;28;4496;-58
2023/06/28 01:40:14;;;;;;;3.40;1.50;;;;;;;14.94;100.00;101065.41;689161;28;1461;-58
2023/06/28 01:40:36;;;;;;;3.25;1.50;;;;;;;14.96;100.00;101068.00;690291;28;1023;-57